createdAt,value
2016-06-01T00:00:44.585Z,0
2016-06-01T00:01:44.603Z,0
2016-06-01T00:02:58.547Z,0
2016-06-01T00:03:44.609Z,0
2016-06-01T00:04:44.455Z,0
2016-06-01T00:05:44.474Z,0
2016-06-01T00:06:44.632Z,0
2016-06-01T00:07:44.635Z,0
2016-06-01T00:08:45.091Z,0
2016-06-01T00:09:44.656Z,0
2016-06-01T00:10:44.509Z,0
2016-06-01T00:11:44.694Z,0
2016-06-01T00:12:44.581Z,0
2016-06-01T00:13:44.768Z,0
2016-06-01T00:14:44.796Z,0
2016-06-01T00:15:44.812Z,0
2016-06-01T00:16:44.838Z,0
2016-06-01T00:17:44.851Z,0
2016-06-01T00:18:44.863Z,0
2016-06-01T00:19:44.875Z,0
2016-06-01T00:20:44.883Z,0
2016-06-01T00:21:44.889Z,0
2016-06-01T00:22:44.911Z,0
2016-06-01T00:23:44.636Z,0
2016-06-01T00:24:44.939Z,0
2016-06-01T00:25:44.927Z,0
2016-06-01T00:26:44.946Z,0
2016-06-01T00:27:44.950Z,0
2016-06-01T00:28:44.954Z,0
2016-06-01T00:29:44.958Z,0
2016-06-01T00:30:44.821Z,0
2016-06-01T00:31:44.980Z,0
2016-06-01T00:32:44.983Z,0
2016-06-01T00:33:44.986Z,0
2016-06-01T00:34:44.989Z,0
2016-06-01T00:35:45.008Z,0
2016-06-01T00:36:44.698Z,0
2016-06-01T00:37:44.857Z,0
2016-06-01T00:38:45.031Z,0
2016-06-01T00:39:44.878Z,0
2016-06-01T00:40:45.037Z,0
2016-06-01T00:41:44.931Z,0
2016-06-01T00:42:45.042Z,0
2016-06-01T00:43:45.092Z,0
2016-06-01T00:44:45.047Z,0
2016-06-01T00:45:45.066Z,0
2016-06-01T00:46:44.913Z,0
2016-06-01T00:47:45.087Z,0
2016-06-01T00:48:45.136Z,0
2016-06-01T00:49:45.093Z,0
2016-06-01T00:50:44.939Z,0
2016-06-01T00:51:45.113Z,0
2016-06-01T00:52:45.101Z,0
2016-06-01T00:53:45.041Z,0
2016-06-01T00:54:44.981Z,0
2016-06-01T00:55:45.124Z,0
2016-06-01T00:56:45.127Z,0
2016-06-01T00:57:45.145Z,0
2016-06-01T00:58:45.148Z,0
2016-06-01T00:59:45.151Z,0
2016-06-01T01:00:45.153Z,0
2016-06-01T01:01:45.171Z,0
2016-06-01T01:02:45.174Z,0
2016-06-01T01:03:45.177Z,0
2016-06-01T01:04:45.023Z,0
2016-06-01T01:05:45.198Z,0
2016-06-01T01:06:45.184Z,0
2016-06-01T01:07:45.047Z,0
2016-06-01T01:08:45.269Z,0
2016-06-01T01:09:45.053Z,0
2016-06-01T01:10:45.211Z,0
2016-06-01T01:11:44.917Z,0
2016-06-01T01:12:44.920Z,0
2016-06-01T01:13:45.078Z,0
2016-06-01T01:14:45.253Z,0
2016-06-01T01:15:45.256Z,0
2016-06-01T01:16:45.087Z,0
2016-06-01T01:17:45.261Z,0
2016-06-01T01:18:45.264Z,0
2016-06-01T01:19:45.266Z,0
2016-06-01T01:20:44.972Z,0
2016-06-01T01:21:45.272Z,0
2016-06-01T01:22:45.291Z,0
2016-06-01T01:23:45.324Z,0
2016-06-01T01:24:45.155Z,0
2016-06-01T01:25:45.158Z,0
2016-06-01T01:26:45.317Z,0
2016-06-01T01:27:45.320Z,0
2016-06-01T01:28:45.323Z,0
2016-06-01T01:29:45.326Z,0
2016-06-01T01:30:45.343Z,0
2016-06-01T01:31:45.345Z,0
2016-06-01T01:32:59.445Z,0
2016-06-01T01:33:45.367Z,0
2016-06-01T01:34:45.354Z,0
2016-06-01T01:35:45.216Z,0
2016-06-01T01:36:45.375Z,0
2016-06-01T01:37:45.378Z,0
2016-06-01T01:38:45.240Z,0
2016-06-01T01:39:45.398Z,0
2016-06-01T01:40:45.401Z,0
2016-06-01T01:41:45.403Z,0
2016-06-01T01:42:45.406Z,0
2016-06-01T01:43:45.425Z,0
2016-06-01T01:44:45.272Z,0
2016-06-01T01:45:45.274Z,0
2016-06-01T01:46:45.292Z,0
2016-06-01T01:47:45.124Z,0
2016-06-01T01:48:45.439Z,0
2016-06-01T01:49:45.300Z,0
2016-06-01T01:50:45.522Z,0
2016-06-01T01:51:45.306Z,0
2016-06-01T01:52:45.308Z,0
2016-06-01T01:53:45.952Z,0
2016-06-01T01:54:45.501Z,0
2016-06-01T01:55:45.488Z,0
2016-06-01T01:56:45.507Z,0
2016-06-01T01:57:45.510Z,0
2016-06-01T01:58:45.512Z,0
2016-06-01T01:59:45.359Z,0
2016-06-01T02:00:45.518Z,0
2016-06-01T02:01:45.536Z,0
2016-06-01T02:02:45.539Z,0
2016-06-01T02:03:45.541Z,0
2016-06-01T02:04:45.545Z,0
2016-06-01T02:05:45.547Z,0
2016-06-01T02:06:45.393Z,0
2016-06-01T02:07:45.553Z,0
2016-06-01T02:08:45.914Z,0
2016-06-01T02:09:46.228Z,0
2016-06-01T02:10:45.576Z,0
2016-06-01T02:11:45.578Z,0
2016-06-01T02:12:45.597Z,0
2016-06-01T02:13:45.584Z,0
2016-06-01T02:14:45.602Z,0
2016-06-01T02:15:45.605Z,0
2016-06-01T02:16:45.623Z,0
2016-06-01T02:17:45.626Z,0
2016-06-01T02:18:45.628Z,0
2016-06-01T02:19:45.475Z,0
2016-06-01T02:20:45.633Z,0
2016-06-01T02:21:45.636Z,0
2016-06-01T02:22:45.499Z,0
2016-06-01T02:23:45.516Z,0
2016-06-01T02:24:45.958Z,0
2016-06-01T02:25:45.663Z,0
2016-06-01T02:26:45.509Z,0
2016-06-01T02:27:45.684Z,0
2016-06-01T02:28:45.687Z,0
2016-06-01T02:29:45.532Z,0
2016-06-01T02:30:45.708Z,0
2016-06-01T02:31:45.555Z,0
2016-06-01T02:32:45.712Z,0
2016-06-01T02:33:45.732Z,0
2016-06-01T02:34:45.718Z,0
2016-06-01T02:35:45.721Z,0
2016-06-01T02:36:45.584Z,0
2016-06-01T02:37:45.742Z,0
2016-06-01T02:38:45.853Z,0
2016-06-01T02:39:45.653Z,0
2016-06-01T02:40:45.766Z,0
2016-06-01T02:41:45.769Z,0
2016-06-01T02:42:45.772Z,0
2016-06-01T02:43:45.775Z,0
2016-06-01T02:44:45.823Z,0
2016-06-01T02:45:45.841Z,0
2016-06-01T02:46:45.625Z,0
2016-06-01T02:47:45.847Z,0
2016-06-01T02:48:45.709Z,0
2016-06-01T02:49:45.869Z,0
2016-06-01T02:50:45.699Z,0
2016-06-01T02:51:45.810Z,0
2016-06-01T02:52:45.735Z,0
2016-06-01T02:53:45.817Z,0
2016-06-01T02:54:45.725Z,0
2016-06-01T02:55:45.697Z,0
2016-06-01T02:56:45.903Z,0
2016-06-01T02:57:45.702Z,0
2016-06-01T02:58:45.704Z,0
2016-06-01T02:59:45.864Z,0
2016-06-01T03:00:45.726Z,0
2016-06-01T03:01:45.901Z,0
2016-06-01T03:02:45.888Z,0
2016-06-01T03:03:45.890Z,0
2016-06-01T03:04:45.736Z,4
2016-06-01T03:05:45.896Z,4
2016-06-01T03:06:45.757Z,4
2016-06-01T03:07:45.901Z,0
2016-06-01T03:08:46.060Z,0
2016-06-01T03:09:45.797Z,4
2016-06-01T03:10:45.612Z,4
2016-06-01T03:11:45.630Z,4
2016-06-01T03:12:45.931Z,4
2016-06-01T03:13:45.933Z,4
2016-06-01T03:14:45.967Z,4
2016-06-01T03:15:45.797Z,4
2016-06-01T03:16:45.675Z,8
2016-06-01T03:17:45.975Z,4
2016-06-01T03:18:45.978Z,4
2016-06-01T03:19:45.839Z,8
2016-06-01T03:20:45.983Z,8
2016-06-01T03:21:46.002Z,12
2016-06-01T03:22:45.879Z,8
2016-06-01T03:23:46.147Z,12
2016-06-01T03:24:46.728Z,12
2016-06-01T03:25:46.013Z,8
2016-06-01T03:26:46.015Z,8
2016-06-01T03:27:46.033Z,12
2016-06-01T03:28:46.036Z,12
2016-06-01T03:29:46.038Z,12
2016-06-01T03:30:46.057Z,12
2016-06-01T03:31:46.060Z,12
2016-06-01T03:33:14.252Z,16
2016-06-01T03:33:46.080Z,16
2016-06-01T03:34:46.082Z,16
2016-06-01T03:35:46.085Z,16
2016-06-01T03:36:46.073Z,16
2016-06-01T03:37:46.076Z,16
2016-06-01T03:38:46.423Z,20
2016-06-01T03:39:46.096Z,24
2016-06-01T03:40:46.098Z,28
2016-06-01T03:41:45.945Z,32
2016-06-01T03:42:46.120Z,32
2016-06-01T03:43:45.967Z,32
2016-06-01T03:44:46.126Z,32
2016-06-01T03:45:46.129Z,32
2016-06-01T03:46:46.146Z,32
2016-06-01T03:47:46.196Z,32
2016-06-01T03:48:46.152Z,28
2016-06-01T03:49:46.045Z,28
2016-06-01T03:50:46.157Z,24
2016-06-01T03:51:46.161Z,20
2016-06-01T03:52:46.162Z,20
2016-06-01T03:53:46.416Z,20
2016-06-01T03:54:46.184Z,20
2016-06-01T03:55:46.233Z,16
2016-06-01T03:56:46.205Z,16
2016-06-01T03:57:46.208Z,16
2016-06-01T03:58:46.069Z,20
2016-06-01T03:59:46.213Z,20
2016-06-01T04:00:46.231Z,24
2016-06-01T04:01:46.234Z,24
2016-06-01T04:03:00.318Z,28
2016-06-01T04:03:46.271Z,28
2016-06-01T04:04:46.243Z,28
2016-06-01T04:05:46.244Z,28
2016-06-01T04:06:46.248Z,32
2016-06-01T04:07:46.266Z,32
2016-06-01T04:08:46.971Z,32
2016-06-01T04:09:46.709Z,32
2016-06-01T04:10:46.134Z,32
2016-06-01T04:11:46.151Z,32
2016-06-01T04:12:46.295Z,32
2016-06-01T04:13:46.313Z,32
2016-06-01T04:14:46.300Z,32
2016-06-01T04:15:46.303Z,32
2016-06-01T04:16:46.321Z,32
2016-06-01T04:17:46.323Z,32
2016-06-01T04:18:46.326Z,32
2016-06-01T04:19:46.344Z,28
2016-06-01T04:20:46.379Z,28
2016-06-01T04:21:46.194Z,24
2016-06-01T04:22:46.353Z,24
2016-06-01T04:23:46.058Z,20
2016-06-01T04:24:46.514Z,20
2016-06-01T04:25:46.360Z,20
2016-06-01T04:26:46.364Z,20
2016-06-01T04:27:46.225Z,20
2016-06-01T04:28:46.400Z,24
2016-06-01T04:29:46.387Z,24
2016-06-01T04:30:46.391Z,24
2016-06-01T04:31:46.407Z,24
2016-06-01T04:32:46.255Z,20
2016-06-01T04:33:46.413Z,16
2016-06-01T04:34:46.276Z,20
2016-06-01T04:35:46.419Z,20
2016-06-01T04:36:46.437Z,20
2016-06-01T04:37:46.284Z,16
2016-06-01T04:38:46.584Z,16
2016-06-01T04:39:46.524Z,16
2016-06-01T04:40:46.464Z,20
2016-06-01T04:41:46.467Z,24
2016-06-01T04:42:46.469Z,28
2016-06-01T04:43:46.315Z,24
2016-06-01T04:44:46.350Z,28
2016-06-01T04:45:46.336Z,32
2016-06-01T04:46:46.339Z,32
2016-06-01T04:47:46.217Z,32
2016-06-01T04:48:46.500Z,32
2016-06-01T04:49:46.535Z,32
2016-06-01T04:50:46.506Z,40
2016-06-01T04:51:46.414Z,36
2016-06-01T04:52:46.372Z,28
2016-06-01T04:53:46.233Z,24
2016-06-01T04:54:46.719Z,24
2016-06-01T04:55:46.551Z,28
2016-06-01T04:56:46.475Z,32
2016-06-01T04:57:46.556Z,28
2016-06-01T04:58:46.574Z,24
2016-06-01T04:59:46.578Z,24
2016-06-01T05:00:46.424Z,20
2016-06-01T05:01:46.427Z,20
2016-06-01T05:02:46.601Z,24
2016-06-01T05:03:46.588Z,20
2016-06-01T05:04:46.450Z,24
2016-06-01T05:05:46.609Z,28
2016-06-01T05:06:46.612Z,32
2016-06-01T05:07:46.615Z,40
2016-06-01T05:08:46.961Z,48
2016-06-01T05:09:46.652Z,64
2016-06-01T05:10:46.638Z,80
2016-06-01T05:11:46.640Z,88
2016-06-01T05:12:46.487Z,92
2016-06-01T05:13:46.646Z,84
2016-06-01T05:14:46.664Z,88
2016-06-01T05:15:46.511Z,84
2016-06-01T05:16:46.670Z,76
2016-06-01T05:17:46.673Z,76
2016-06-01T05:18:46.675Z,72
2016-06-01T05:19:46.694Z,76
2016-06-01T05:20:46.540Z,80
2016-06-01T05:21:46.575Z,92
2016-06-01T05:22:46.717Z,96
2016-06-01T05:23:46.719Z,100
2016-06-01T05:24:47.020Z,96
2016-06-01T05:25:46.725Z,88
2016-06-01T05:26:46.728Z,92
2016-06-01T05:27:46.762Z,104
2016-06-01T05:28:46.593Z,112
2016-06-01T05:29:46.611Z,116
2016-06-01T05:30:46.755Z,120
2016-06-01T05:31:46.616Z,120
2016-06-01T05:33:00.857Z,112
2016-06-01T05:33:46.763Z,116
2016-06-01T05:34:46.780Z,128
2016-06-01T05:35:46.783Z,148
2016-06-01T05:36:46.802Z,176
2016-06-01T05:37:46.649Z,204
2016-06-01T05:38:47.026Z,240
2016-06-01T05:39:46.951Z,272
2016-06-01T05:40:46.812Z,236
2016-06-01T05:41:46.674Z,208
2016-06-01T05:42:46.818Z,200
2016-06-01T05:43:46.679Z,216
2016-06-01T05:44:46.854Z,204
2016-06-01T05:45:46.842Z,212
2016-06-01T05:46:46.704Z,208
2016-06-01T05:47:46.847Z,180
2016-06-01T05:48:46.865Z,160
2016-06-01T05:49:46.946Z,168
2016-06-01T05:50:46.887Z,204
2016-06-01T05:51:46.764Z,228
2016-06-01T05:52:46.908Z,240
2016-06-01T05:53:46.613Z,248
2016-06-01T05:54:47.834Z,240
2016-06-01T05:55:46.900Z,220
2016-06-01T05:56:46.981Z,252
2016-06-01T05:57:46.936Z,336
2016-06-01T05:58:46.767Z,432
2016-06-01T05:59:46.927Z,536
2016-06-01T06:00:46.930Z,588
2016-06-01T06:01:46.947Z,604
2016-06-01T06:02:46.794Z,668
2016-06-01T06:03:46.953Z,776
2016-06-01T06:04:46.955Z,920
2016-06-01T06:05:46.973Z,936
2016-06-01T06:06:46.820Z,820
2016-06-01T06:07:46.994Z,824
2016-06-01T06:08:47.091Z,952
2016-06-01T06:09:47.156Z,1004
2016-06-01T06:10:50.424Z,936
2016-06-01T06:11:46.849Z,884
2016-06-01T06:12:47.008Z,892
2016-06-01T06:13:47.027Z,960
2016-06-01T06:14:46.857Z,912
2016-06-01T06:15:52.234Z,780
2016-06-01T06:16:46.878Z,640
2016-06-01T06:17:47.053Z,580
2016-06-01T06:18:47.039Z,580
2016-06-01T06:19:47.042Z,580
2016-06-01T06:20:50.826Z,584
2016-06-01T06:21:47.063Z,584
2016-06-01T06:22:47.066Z,572
2016-06-01T06:23:47.257Z,524
2016-06-01T06:24:46.978Z,448
2016-06-01T06:25:50.028Z,380
2016-06-01T06:26:47.092Z,344
2016-06-01T06:27:46.783Z,324
2016-06-01T06:28:47.097Z,320
2016-06-01T06:29:47.101Z,336
2016-06-01T06:30:47.119Z,344
2016-06-01T06:31:47.121Z,332
2016-06-01T06:32:47.140Z,312
2016-06-01T06:33:47.143Z,296
2016-06-01T06:34:46.989Z,296
2016-06-01T06:35:48.195Z,316
2016-06-01T06:36:47.151Z,344
2016-06-01T06:37:47.169Z,368
2016-06-01T06:38:47.702Z,360
2016-06-01T06:39:47.159Z,336
2016-06-01T06:40:49.490Z,344
2016-06-01T06:41:47.196Z,360
2016-06-01T06:42:47.183Z,348
2016-06-01T06:43:47.060Z,288
2016-06-01T06:44:47.063Z,236
2016-06-01T06:45:47.221Z,200
2016-06-01T06:46:47.209Z,184
2016-06-01T06:47:47.243Z,172
2016-06-01T06:48:47.245Z,172
2016-06-01T06:49:47.232Z,180
2016-06-01T06:50:50.392Z,204
2016-06-01T06:51:47.254Z,208
2016-06-01T06:52:47.147Z,212
2016-06-01T06:53:46.961Z,208
2016-06-01T06:54:48.308Z,192
2016-06-01T06:55:49.217Z,180
2016-06-01T06:56:47.283Z,172
2016-06-01T06:57:47.333Z,160
2016-06-01T06:58:47.289Z,156
2016-06-01T06:59:47.306Z,156
2016-06-01T07:00:50.011Z,156
2016-06-01T07:01:47.311Z,160
2016-06-01T07:02:47.314Z,172
2016-06-01T07:03:47.317Z,188
2016-06-01T07:04:47.336Z,204
2016-06-01T07:05:49.714Z,240
2016-06-01T07:06:47.341Z,256
2016-06-01T07:07:47.343Z,268
2016-06-01T07:08:47.691Z,260
2016-06-01T07:09:47.740Z,256
2016-06-01T07:10:49.133Z,260
2016-06-01T07:11:47.385Z,252
2016-06-01T07:12:47.388Z,256
2016-06-01T07:13:47.376Z,268
2016-06-01T07:14:47.378Z,292
2016-06-01T07:15:51.099Z,324
2016-06-01T07:16:47.242Z,344
2016-06-01T07:17:47.402Z,368
2016-06-01T07:18:47.404Z,384
2016-06-01T07:19:47.267Z,388
2016-06-01T07:20:47.426Z,424
2016-06-01T07:21:47.428Z,452
2016-06-01T07:22:47.446Z,464
2016-06-01T07:23:48.214Z,452
2016-06-01T07:24:47.014Z,428
2016-06-01T07:25:50.642Z,452
2016-06-01T07:26:47.457Z,488
2016-06-01T07:27:47.459Z,496
2016-06-01T07:28:47.494Z,504
2016-06-01T07:29:47.325Z,464
2016-06-01T07:30:48.796Z,452
2016-06-01T07:31:47.330Z,460
2016-06-01T07:32:47.505Z,464
2016-06-01T07:33:47.492Z,480
2016-06-01T07:34:47.510Z,504
2016-06-01T07:35:48.466Z,528
2016-06-01T07:36:47.203Z,588
2016-06-01T07:37:47.518Z,680
2016-06-01T07:38:47.535Z,676
2016-06-01T07:39:48.351Z,616
2016-06-01T07:40:49.573Z,572
2016-06-01T07:41:47.560Z,532
2016-06-01T07:42:47.563Z,448
2016-06-01T07:43:47.566Z,388
2016-06-01T07:44:47.584Z,340
2016-06-01T07:45:49.945Z,312
2016-06-01T07:46:47.573Z,304
2016-06-01T07:47:47.576Z,292
2016-06-01T07:48:47.595Z,284
2016-06-01T07:49:47.441Z,272
2016-06-01T07:50:49.303Z,264
2016-06-01T07:51:47.603Z,252
2016-06-01T07:52:47.683Z,240
2016-06-01T07:53:48.733Z,236
2016-06-01T07:54:48.470Z,240
2016-06-01T07:55:50.817Z,244
2016-06-01T07:56:47.647Z,252
2016-06-01T07:57:47.494Z,256
2016-06-01T07:58:47.497Z,252
2016-06-01T07:59:47.655Z,248
2016-06-01T08:00:48.253Z,232
2016-06-01T08:01:47.675Z,224
2016-06-01T08:02:47.663Z,220
2016-06-01T08:03:47.681Z,228
2016-06-01T08:04:47.700Z,236
2016-06-01T08:05:50.499Z,240
2016-06-01T08:06:47.705Z,236
2016-06-01T08:07:47.692Z,236
2016-06-01T08:08:47.570Z,232
2016-06-01T08:09:47.416Z,228
2016-06-01T08:10:50.732Z,224
2016-06-01T08:11:47.718Z,220
2016-06-01T08:12:47.580Z,220
2016-06-01T08:13:47.740Z,216
2016-06-01T08:14:47.743Z,200
2016-06-01T08:15:50.668Z,196
2016-06-01T08:16:47.748Z,196
2016-06-01T08:17:47.766Z,204
2016-06-01T08:18:47.612Z,212
2016-06-01T08:19:47.615Z,228
2016-06-01T08:20:48.306Z,272
2016-06-01T08:21:47.793Z,332
2016-06-01T08:22:47.796Z,396
2016-06-01T08:23:47.814Z,436
2016-06-01T08:24:48.300Z,424
2016-06-01T08:25:50.226Z,392
2016-06-01T08:26:47.806Z,360
2016-06-01T08:27:47.512Z,340
2016-06-01T08:28:47.842Z,320
2016-06-01T08:29:47.845Z,308
2016-06-01T08:30:50.114Z,320
2016-06-01T08:31:47.851Z,336
2016-06-01T08:32:47.853Z,352
2016-06-01T08:33:47.855Z,352
2016-06-01T08:34:47.703Z,340
2016-06-01T08:35:49.877Z,332
2016-06-01T08:36:47.724Z,348
2016-06-01T08:37:47.883Z,384
2016-06-01T08:38:48.775Z,408
2016-06-01T08:39:48.044Z,388
2016-06-01T08:40:49.547Z,376
2016-06-01T08:41:47.908Z,336
2016-06-01T08:42:47.927Z,340
2016-06-01T08:43:47.914Z,360
2016-06-01T08:44:47.933Z,376
2016-06-01T08:45:48.326Z,384
2016-06-01T08:46:47.782Z,388
2016-06-01T08:47:47.941Z,364
2016-06-01T08:48:47.944Z,340
2016-06-01T08:49:47.946Z,312
2016-06-01T08:50:47.964Z,304
2016-06-01T08:51:47.967Z,308
2016-06-01T08:52:47.970Z,316
2016-06-01T08:53:48.238Z,312
2016-06-01T08:54:48.366Z,296
2016-06-01T08:55:51.259Z,300
2016-06-01T08:56:47.996Z,288
2016-06-01T08:57:47.999Z,296
2016-06-01T08:58:48.001Z,332
2016-06-01T08:59:47.863Z,372
2016-06-01T09:00:48.023Z,388
2016-06-01T09:01:48.025Z,400
2016-06-01T09:02:48.059Z,420
2016-06-01T09:03:48.047Z,444
2016-06-01T09:04:48.049Z,452
2016-06-01T09:05:48.067Z,432
2016-06-01T09:06:48.055Z,392
2016-06-01T09:07:47.932Z,376
2016-06-01T09:08:48.247Z,352
2016-06-01T09:09:48.187Z,332
2016-06-01T09:10:48.096Z,316
2016-06-01T09:11:47.927Z,296
2016-06-01T09:12:48.102Z,284
2016-06-01T09:13:48.105Z,280
2016-06-01T09:14:48.107Z,284
2016-06-01T09:15:48.111Z,304
2016-06-01T09:16:47.841Z,300
2016-06-01T09:17:48.180Z,280
2016-06-01T09:18:48.050Z,268
2016-06-01T09:19:48.328Z,256
2016-06-01T09:20:48.275Z,256
2016-06-01T09:21:48.146Z,248
2016-06-01T09:22:48.281Z,264
2016-06-01T09:23:48.309Z,292
2016-06-01T09:24:48.617Z,276
2016-06-01T09:25:48.347Z,284
2016-06-01T09:26:48.353Z,300
2016-06-01T09:27:48.343Z,324
2016-06-01T09:28:48.364Z,340
2016-06-01T09:29:48.370Z,376
2016-06-01T09:30:48.391Z,420
2016-06-01T09:31:48.394Z,424
2016-06-01T09:32:48.384Z,436
2016-06-01T09:33:48.403Z,448
2016-06-01T09:34:48.406Z,464
2016-06-01T09:35:48.426Z,428
2016-06-01T09:36:48.429Z,376
2016-06-01T09:37:48.432Z,328
2016-06-01T09:38:48.451Z,280
2016-06-01T09:39:48.297Z,248
2016-06-01T09:40:48.441Z,244
2016-06-01T09:41:48.461Z,260
2016-06-01T09:42:48.479Z,292
2016-06-01T09:43:48.466Z,324
2016-06-01T09:44:48.469Z,316
2016-06-01T09:45:48.472Z,308
2016-06-01T09:46:48.490Z,320
2016-06-01T09:47:48.524Z,312
2016-06-01T09:48:48.496Z,328
2016-06-01T09:49:48.358Z,352
2016-06-01T09:50:48.517Z,352
2016-06-01T09:51:48.520Z,356
2016-06-01T09:52:48.523Z,360
2016-06-01T09:53:48.650Z,312
2016-06-01T09:54:48.839Z,308
2016-06-01T09:55:48.343Z,316
2016-06-01T09:56:48.548Z,308
2016-06-01T09:57:48.551Z,288
2016-06-01T09:58:48.569Z,264
2016-06-01T09:59:48.572Z,252
2016-06-01T10:00:48.575Z,260
2016-06-01T10:01:48.594Z,280
2016-06-01T10:02:48.581Z,316
2016-06-01T10:03:48.599Z,340
2016-06-01T10:04:48.601Z,332
2016-06-01T10:05:48.605Z,312
2016-06-01T10:06:48.638Z,316
2016-06-01T10:07:48.610Z,328
2016-06-01T10:08:48.627Z,340
2016-06-01T10:09:48.927Z,340
2016-06-01T10:10:48.649Z,336
2016-06-01T10:11:48.652Z,324
2016-06-01T10:12:48.671Z,308
2016-06-01T10:13:48.673Z,300
2016-06-01T10:14:48.675Z,300
2016-06-01T10:15:48.679Z,304
2016-06-01T10:16:48.524Z,312
2016-06-01T10:17:48.698Z,332
2016-06-01T10:18:48.686Z,360
2016-06-01T10:19:48.689Z,388
2016-06-01T10:20:48.692Z,380
2016-06-01T10:21:48.537Z,500
2016-06-01T10:22:48.712Z,528
2016-06-01T10:23:48.700Z,568
2016-06-01T10:24:48.859Z,616
2016-06-01T10:25:48.721Z,676
2016-06-01T10:26:48.723Z,696
2016-06-01T10:27:48.741Z,648
2016-06-01T10:28:48.728Z,612
2016-06-01T10:29:48.731Z,628
2016-06-01T10:30:48.437Z,676
2016-06-01T10:31:48.596Z,716
2016-06-01T10:32:48.755Z,768
2016-06-01T10:33:48.742Z,824
2016-06-01T10:34:48.745Z,828
2016-06-01T10:35:48.747Z,768
2016-06-01T10:36:48.594Z,740
2016-06-01T10:37:48.440Z,756
2016-06-01T10:38:48.772Z,788
2016-06-01T10:39:49.274Z,784
2016-06-01T10:40:48.854Z,696
2016-06-01T10:41:48.624Z,616
2016-06-01T10:42:48.766Z,620
2016-06-01T10:43:48.769Z,648
2016-06-01T10:44:48.615Z,700
2016-06-01T10:45:48.477Z,788
2016-06-01T10:46:48.776Z,836
2016-06-01T10:47:48.796Z,748
2016-06-01T10:48:48.782Z,696
2016-06-01T10:49:48.801Z,684
2016-06-01T10:50:48.632Z,700
2016-06-01T10:51:48.619Z,736
2016-06-01T10:52:48.793Z,696
2016-06-01T10:53:48.905Z,604
2016-06-01T10:54:48.861Z,572
2016-06-01T10:55:49.395Z,524
2016-06-01T10:56:48.851Z,512
2016-06-01T10:57:48.837Z,564
2016-06-01T10:58:48.653Z,628
2016-06-01T10:59:48.812Z,720
2016-06-01T11:00:48.831Z,816
2016-06-01T11:01:48.818Z,952
2016-06-01T11:02:48.710Z,1084
2016-06-01T11:03:48.682Z,1196
2016-06-01T11:04:48.825Z,1320
2016-06-01T11:05:48.672Z,1476
2016-06-01T11:06:48.846Z,1612
2016-06-01T11:07:48.833Z,1696
2016-06-01T11:08:48.852Z,1692
2016-06-01T11:09:48.855Z,1424
2016-06-01T11:10:48.841Z,1308
2016-06-01T11:11:48.844Z,1292
2016-06-01T11:12:48.846Z,1168
2016-06-01T11:13:48.849Z,1116
2016-06-01T11:14:48.852Z,1040
2016-06-01T11:15:48.715Z,924
2016-06-01T11:16:48.873Z,916
2016-06-01T11:17:48.720Z,1260
2016-06-01T11:18:48.707Z,1368
2016-06-01T11:19:48.429Z,1528
2016-06-01T11:20:48.915Z,1564
2016-06-01T11:21:48.934Z,1544
2016-06-01T11:22:48.904Z,1460
2016-06-01T11:23:48.736Z,1392
2016-06-01T11:24:48.598Z,1476
2016-06-01T11:25:48.913Z,1628
2016-06-01T11:26:48.931Z,1784
2016-06-01T11:27:48.762Z,1916
2016-06-01T11:28:48.937Z,2000
2016-06-01T11:29:48.940Z,2012
2016-06-01T11:30:48.911Z,1972
2016-06-01T11:31:48.772Z,1956
2016-06-01T11:32:48.947Z,1964
2016-06-01T11:33:48.966Z,2008
2016-06-01T11:34:48.953Z,1932
2016-06-01T11:35:48.784Z,1988
2016-06-01T11:36:48.959Z,2052
2016-06-01T11:37:48.977Z,2116
2016-06-01T11:38:48.808Z,2132
2016-06-01T11:39:48.826Z,2100
2016-06-01T11:40:48.828Z,2020
2016-06-01T11:41:48.815Z,1876
2016-06-01T11:42:48.818Z,1760
2016-06-01T11:43:48.821Z,1728
2016-06-01T11:44:48.996Z,1700
2016-06-01T11:45:48.999Z,1692
2016-06-01T11:46:49.001Z,1684
2016-06-01T11:47:48.847Z,1660
2016-06-01T11:48:49.007Z,1624
2016-06-01T11:49:48.852Z,1596
2016-06-01T11:50:49.027Z,1572
2016-06-01T11:51:48.858Z,1588
2016-06-01T11:52:48.876Z,1592
2016-06-01T11:53:49.067Z,1584
2016-06-01T11:54:49.037Z,1620
2016-06-01T11:55:49.056Z,1616
2016-06-01T11:56:48.887Z,1600
2016-06-01T11:57:49.031Z,1596
2016-06-01T11:58:49.080Z,1564
2016-06-01T11:59:48.895Z,1540
2016-06-01T12:00:48.929Z,1556
2016-06-01T12:01:48.901Z,1528
2016-06-01T12:02:49.059Z,1416
2016-06-01T12:03:48.765Z,1260
2016-06-01T12:04:49.081Z,1100
2016-06-01T12:05:49.084Z,1004
2016-06-01T12:06:49.085Z,972
2016-06-01T12:07:48.933Z,992
2016-06-01T12:08:49.139Z,996
2016-06-01T12:09:49.610Z,964
2016-06-01T12:10:48.799Z,928
2016-06-01T12:11:49.100Z,876
2016-06-01T12:12:49.118Z,816
2016-06-01T12:13:48.964Z,760
2016-06-01T12:14:49.108Z,712
2016-06-01T12:15:49.110Z,676
2016-06-01T12:16:49.113Z,660
2016-06-01T12:17:48.974Z,632
2016-06-01T12:18:49.118Z,612
2016-06-01T12:19:49.137Z,612
2016-06-01T12:20:49.139Z,608
2016-06-01T12:21:49.157Z,612
2016-06-01T12:22:48.988Z,624
2016-06-01T12:23:49.132Z,640
2016-06-01T12:24:49.571Z,672
2016-06-01T12:25:49.153Z,692
2016-06-01T12:26:48.999Z,716
2016-06-01T12:27:49.158Z,752
2016-06-01T12:28:49.177Z,804
2016-06-01T12:29:49.039Z,860
2016-06-01T12:30:49.181Z,896
2016-06-01T12:31:49.170Z,924
2016-06-01T12:32:49.187Z,956
2016-06-01T12:33:49.033Z,984
2016-06-01T12:34:49.192Z,956
2016-06-01T12:35:49.195Z,920
2016-06-01T12:36:49.057Z,868
2016-06-01T12:37:49.217Z,876
2016-06-01T12:38:49.047Z,848
2016-06-01T12:39:49.597Z,796
2016-06-01T12:40:49.209Z,732
2016-06-01T12:41:49.211Z,692
2016-06-01T12:42:49.214Z,652
2016-06-01T12:43:49.061Z,636
2016-06-01T12:44:49.438Z,636
2016-06-01T12:45:49.081Z,668
2016-06-01T12:46:49.085Z,708
2016-06-01T12:47:49.087Z,752
2016-06-01T12:48:49.090Z,820
2016-06-01T12:49:49.108Z,840
2016-06-01T12:50:49.095Z,836
2016-06-01T12:51:49.269Z,868
2016-06-01T12:52:49.132Z,900
2016-06-01T12:53:49.260Z,1036
2016-06-01T12:54:49.793Z,1056
2016-06-01T12:55:49.437Z,1156
2016-06-01T12:56:49.283Z,1124
2016-06-01T12:57:49.129Z,1056
2016-06-01T12:58:49.148Z,960
2016-06-01T12:59:49.307Z,956
2016-06-01T13:00:49.293Z,988
2016-06-01T13:01:49.140Z,1032
2016-06-01T13:02:49.299Z,1088
2016-06-01T13:03:49.301Z,1100
2016-06-01T13:04:49.164Z,1096
2016-06-01T13:05:49.307Z,1064
2016-06-01T13:06:49.153Z,892
2016-06-01T13:07:49.328Z,676
2016-06-01T13:08:49.314Z,520
2016-06-01T13:09:49.661Z,420
2016-06-01T13:10:49.195Z,412
2016-06-01T13:11:49.183Z,444
2016-06-01T13:12:49.357Z,496
2016-06-01T13:13:49.344Z,556
2016-06-01T13:14:49.362Z,620
2016-06-01T13:15:49.365Z,660
2016-06-01T13:16:49.368Z,708
2016-06-01T13:17:49.386Z,756
2016-06-01T13:18:49.374Z,816
2016-06-01T13:19:49.438Z,888
2016-06-01T13:20:49.363Z,932
2016-06-01T13:21:49.225Z,964
2016-06-01T13:22:49.072Z,988
2016-06-01T13:23:49.059Z,1084
2016-06-01T13:24:49.577Z,1140
2016-06-01T13:25:49.080Z,1108
2016-06-01T13:26:49.395Z,960
2016-06-01T13:27:49.256Z,828
2016-06-01T13:28:49.401Z,760
2016-06-01T13:29:49.418Z,756
2016-06-01T13:30:49.265Z,776
2016-06-01T13:31:49.408Z,836
2016-06-01T13:32:49.411Z,896
2016-06-01T13:33:49.414Z,968
2016-06-01T13:34:49.291Z,1092
2016-06-01T13:35:49.263Z,1200
2016-06-01T13:36:49.437Z,1264
2016-06-01T13:37:49.440Z,1308
2016-06-01T13:38:49.442Z,1328
2016-06-01T13:39:49.305Z,1336
2016-06-01T13:40:49.448Z,1316
2016-06-01T13:41:49.435Z,1296
2016-06-01T13:42:49.453Z,1288
2016-06-01T13:43:49.471Z,1256
2016-06-01T13:44:49.459Z,1256
2016-06-01T13:45:49.478Z,1272
2016-06-01T13:46:49.480Z,1344
2016-06-01T13:52:38.306Z,1664
2016-06-01T13:52:51.075Z,1676
2016-06-01T13:53:51.062Z,1740
2016-06-01T13:54:52.455Z,1784
2016-06-01T13:55:51.802Z,1868
2016-06-01T13:56:50.930Z,1928
2016-06-01T13:57:50.776Z,1992
2016-06-01T14:04:04.777Z,1788
2016-06-01T14:05:04.905Z,1772
2016-06-01T14:06:04.892Z,1748
2016-06-01T14:07:04.863Z,1724
2016-06-01T14:08:04.897Z,1612
2016-06-01T14:09:04.869Z,1532
2016-06-01T14:10:05.730Z,1468